createdAt,value
2022-12-08T00:01:52.245Z,2.92
2022-12-08T00:04:24.258Z,2.90
2022-12-08T00:07:13.679Z,2.86
2022-12-08T00:09:45.803Z,2.82
2022-12-08T00:12:18.200Z,2.76
2022-12-08T00:14:50.445Z,2.68
2022-12-08T00:17:22.554Z,2.63
2022-12-08T00:19:54.396Z,2.61
2022-12-08T00:22:26.162Z,2.62
2022-12-08T00:24:58.080Z,2.65
2022-12-08T00:27:30.081Z,2.66
2022-12-08T00:30:02.227Z,2.66
2022-12-08T00:32:34.206Z,2.67
2022-12-08T00:35:06.647Z,2.70
2022-12-08T00:37:38.526Z,2.69
2022-12-08T00:40:11.622Z,2.65
2022-12-08T00:42:43.805Z,2.59
2022-12-08T00:45:15.859Z,2.53
2022-12-08T00:47:48.236Z,2.48
2022-12-08T00:50:20.317Z,2.42
2022-12-08T00:52:52.252Z,2.34
2022-12-08T00:55:24.445Z,2.28
2022-12-08T00:57:56.396Z,2.23
2022-12-08T01:00:28.039Z,2.18
2022-12-08T01:03:00.321Z,2.12
2022-12-08T01:05:32.234Z,2.06
2022-12-08T01:08:06.720Z,2.02
2022-12-08T01:10:38.527Z,2.01
2022-12-08T01:13:10.207Z,2.03
2022-12-08T01:15:42.108Z,2.09
2022-12-08T01:18:14.081Z,2.19
2022-12-08T01:20:46.042Z,2.29
2022-12-08T01:23:17.782Z,2.37
2022-12-08T01:25:49.466Z,2.40
2022-12-08T01:28:21.598Z,2.41
2022-12-08T01:30:53.391Z,2.38
2022-12-08T01:33:25.541Z,2.29
2022-12-08T01:35:57.438Z,2.22
2022-12-08T01:38:29.626Z,2.20
2022-12-08T01:41:01.360Z,2.21
2022-12-08T01:43:52.945Z,2.26
2022-12-08T01:46:24.789Z,2.35
2022-12-08T01:48:59.124Z,2.41
2022-12-08T01:51:32.520Z,2.45
2022-12-08T01:54:05.116Z,2.48
2022-12-08T01:56:38.336Z,2.48
2022-12-08T01:59:11.350Z,2.47
2022-12-08T02:01:43.156Z,2.43
2022-12-08T02:04:15.194Z,2.37
2022-12-08T02:06:48.574Z,2.32
2022-12-08T02:09:21.042Z,2.30
2022-12-08T02:11:53.201Z,2.31
2022-12-08T02:14:25.992Z,2.33
2022-12-08T02:17:02.918Z,2.36
2022-12-08T02:19:48.397Z,2.36
2022-12-08T02:22:25.276Z,2.34
2022-12-08T02:25:01.311Z,2.29
2022-12-08T02:27:49.551Z,2.24
2022-12-08T02:30:26.603Z,2.19
2022-12-08T02:33:24.180Z,2.16
2022-12-08T02:35:59.188Z,2.17
2022-12-08T02:38:37.525Z,2.18
2022-12-08T02:41:13.950Z,2.20
2022-12-08T02:43:46.434Z,2.23
2022-12-08T02:46:20.446Z,2.25
2022-12-08T02:48:54.233Z,2.24
2022-12-08T02:51:26.518Z,2.21
2022-12-08T02:53:58.778Z,2.20
2022-12-08T02:56:47.675Z,2.20
2022-12-08T02:59:32.711Z,2.21
2022-12-08T03:02:12.433Z,2.20
2022-12-08T03:04:47.710Z,2.17
2022-12-08T03:07:23.201Z,2.13
2022-12-08T03:09:57.049Z,2.08
2022-12-08T03:12:33.338Z,2.02
2022-12-08T03:15:09.928Z,1.97
2022-12-08T03:17:45.205Z,1.94
2022-12-08T03:20:20.655Z,1.91
2022-12-08T03:22:54.263Z,1.88
2022-12-08T03:25:26.610Z,1.87
2022-12-08T03:27:58.650Z,1.88
2022-12-08T03:30:32.408Z,1.88
2022-12-08T03:33:06.625Z,1.87
2022-12-08T03:35:41.412Z,1.86
2022-12-08T03:38:15.100Z,1.85
2022-12-08T03:41:07.700Z,1.81
2022-12-08T03:43:39.747Z,1.77
2022-12-08T03:46:11.618Z,1.76
2022-12-08T03:48:43.783Z,1.74
2022-12-08T03:51:15.801Z,1.70
2022-12-08T03:53:48.014Z,1.67
2022-12-08T03:56:23.679Z,1.65
2022-12-08T03:58:56.120Z,1.63
2022-12-08T04:01:28.856Z,1.63
2022-12-08T04:04:00.827Z,1.66
2022-12-08T04:06:33.012Z,1.72
2022-12-08T04:09:04.886Z,1.76
2022-12-08T04:11:36.702Z,1.79
2022-12-08T04:14:08.689Z,1.82
2022-12-08T04:16:40.422Z,1.84
2022-12-08T04:19:12.218Z,1.88
2022-12-08T04:21:44.682Z,1.95
2022-12-08T04:24:16.758Z,2.01
2022-12-08T04:26:50.134Z,2.07
2022-12-08T04:29:22.065Z,2.12
2022-12-08T04:31:53.983Z,2.17
2022-12-08T04:34:26.123Z,2.18
2022-12-08T04:36:57.995Z,2.17
2022-12-08T04:39:29.820Z,2.14
2022-12-08T04:42:02.004Z,2.10
2022-12-08T04:44:33.969Z,2.05
2022-12-08T04:47:06.374Z,1.99
2022-12-08T04:49:38.287Z,1.95
2022-12-08T04:52:10.342Z,1.90
2022-12-08T04:54:42.650Z,1.83
2022-12-08T04:57:14.409Z,1.77
2022-12-08T04:59:46.560Z,1.75
2022-12-08T05:02:18.820Z,1.73
2022-12-08T05:04:50.838Z,1.73
2022-12-08T05:07:22.636Z,1.70
2022-12-08T05:09:54.805Z,1.69
2022-12-08T05:12:26.688Z,1.67
2022-12-08T05:14:58.338Z,1.65
2022-12-08T05:17:30.080Z,1.63
2022-12-08T05:20:02.011Z,1.60
2022-12-08T05:22:34.298Z,1.58
2022-12-08T05:25:06.563Z,1.57
2022-12-08T05:27:38.694Z,1.58
2022-12-08T05:30:11.448Z,1.61
2022-12-08T05:32:43.385Z,1.64
2022-12-08T05:35:15.015Z,1.65
2022-12-08T05:37:46.709Z,1.67
2022-12-08T05:40:19.318Z,1.66
2022-12-08T05:42:51.105Z,1.64
2022-12-08T05:45:22.797Z,1.62
2022-12-08T05:47:56.732Z,1.61
2022-12-08T05:50:28.249Z,1.63
2022-12-08T05:53:00.254Z,1.68
2022-12-08T05:55:32.335Z,1.76
2022-12-08T05:58:07.784Z,1.83
2022-12-08T06:00:40.218Z,1.88
2022-12-08T06:03:12.877Z,1.90
2022-12-08T06:05:45.094Z,1.93
2022-12-08T06:08:16.851Z,1.97
2022-12-08T06:10:48.514Z,2.04
2022-12-08T06:13:20.058Z,2.11
2022-12-08T06:15:51.840Z,2.18
2022-12-08T06:18:28.333Z,2.25
2022-12-08T06:21:07.224Z,2.32
2022-12-08T06:23:39.009Z,2.42
2022-12-08T06:26:12.059Z,2.48
2022-12-08T06:28:44.275Z,2.53
2022-12-08T06:31:18.311Z,2.56
2022-12-08T06:33:50.721Z,2.55
2022-12-08T06:36:24.339Z,2.54
2022-12-08T06:38:56.327Z,2.55
2022-12-08T06:41:28.404Z,2.54
2022-12-08T06:44:00.486Z,2.50
2022-12-08T06:46:32.157Z,2.48
2022-12-08T06:49:03.619Z,2.43
2022-12-08T06:51:35.850Z,2.37
2022-12-08T06:54:08.129Z,2.37
2022-12-08T06:56:39.779Z,2.37
2022-12-08T06:59:12.188Z,2.36
2022-12-08T07:01:44.040Z,2.38
2022-12-08T07:04:16.077Z,2.41
2022-12-08T07:06:48.018Z,2.45
2022-12-08T07:09:19.766Z,2.51
2022-12-08T07:11:51.758Z,2.56
2022-12-08T07:14:25.229Z,2.61
2022-12-08T07:16:56.778Z,2.64
2022-12-08T07:19:28.265Z,2.66
2022-12-08T07:21:59.770Z,2.64
2022-12-08T07:24:31.307Z,2.64
2022-12-08T07:27:03.429Z,2.64
2022-12-08T07:29:35.741Z,2.62
2022-12-08T07:32:09.021Z,2.59
2022-12-08T07:34:40.558Z,2.57
2022-12-08T07:37:12.968Z,2.52
2022-12-08T07:39:44.937Z,2.48
2022-12-08T07:42:17.050Z,2.45
2022-12-08T07:44:51.620Z,2.43
2022-12-08T07:47:23.706Z,2.39
2022-12-08T07:49:56.060Z,2.36
2022-12-08T07:52:28.061Z,2.33
2022-12-08T07:55:00.393Z,2.32
2022-12-08T07:57:32.325Z,2.31
2022-12-08T08:00:04.651Z,2.30
2022-12-08T08:02:43.689Z,2.29
2022-12-08T08:05:15.967Z,2.32
2022-12-08T08:07:48.670Z,2.36
2022-12-08T08:10:20.775Z,2.45
2022-12-08T08:12:52.476Z,2.53
2022-12-08T08:15:24.645Z,2.60
2022-12-08T08:17:56.373Z,2.65
2022-12-08T08:20:28.258Z,2.70
2022-12-08T08:22:59.998Z,2.74
2022-12-08T08:25:32.663Z,2.74
2022-12-08T08:28:04.497Z,2.76
2022-12-08T08:30:36.421Z,2.77
2022-12-08T08:33:08.253Z,2.79
2022-12-08T08:35:40.313Z,2.82
2022-12-08T08:38:11.919Z,2.86
2022-12-08T08:40:43.777Z,2.92
2022-12-08T08:43:34.316Z,3.05
2022-12-08T08:46:10.556Z,3.49
2022-12-08T08:48:42.807Z,3.76
2022-12-08T08:51:15.737Z,4.58
2022-12-08T08:53:47.939Z,5.62
2022-12-08T08:56:20.651Z,6.38
2022-12-08T08:58:53.039Z,6.94
2022-12-08T09:01:26.060Z,6.70
2022-12-08T09:03:58.333Z,6.14
2022-12-08T09:06:30.467Z,5.78
2022-12-08T09:09:02.506Z,5.46
2022-12-08T09:11:35.117Z,5.30
2022-12-08T09:14:06.944Z,5.24
2022-12-08T09:16:42.236Z,5.12
2022-12-08T09:19:14.732Z,4.97
2022-12-08T09:21:46.474Z,4.80
2022-12-08T09:24:18.115Z,4.69
2022-12-08T09:26:49.866Z,4.66
2022-12-08T09:29:22.238Z,4.66
2022-12-08T09:31:55.011Z,4.69
2022-12-08T09:34:26.872Z,4.76
2022-12-08T09:36:59.047Z,4.81
2022-12-08T09:39:31.602Z,4.84
2022-12-08T09:42:04.528Z,4.80
2022-12-08T09:44:46.138Z,4.84
2022-12-08T09:47:20.799Z,4.88
2022-12-08T09:49:54.728Z,4.79
2022-12-08T09:52:28.183Z,4.69
2022-12-08T09:55:02.157Z,4.69
2022-12-08T09:57:33.816Z,4.72
2022-12-08T10:00:07.680Z,4.77
2022-12-08T10:02:39.696Z,4.80
2022-12-08T10:05:14.933Z,4.84
2022-12-08T10:07:48.881Z,4.88
2022-12-08T10:10:27.220Z,5.01
2022-12-08T10:13:01.251Z,5.09
2022-12-08T10:15:42.038Z,5.09
2022-12-08T10:18:16.391Z,5.07
2022-12-08T10:20:49.181Z,4.99
2022-12-08T10:23:26.179Z,4.94
2022-12-08T10:26:02.152Z,4.95
2022-12-08T10:28:40.002Z,4.93
2022-12-08T10:31:20.918Z,4.91
2022-12-08T10:33:55.393Z,4.96
2022-12-08T10:36:29.507Z,4.96
2022-12-08T10:39:01.062Z,4.97
2022-12-08T10:41:32.912Z,5.02
2022-12-08T10:44:04.550Z,5.01
2022-12-08T10:46:40.095Z,5.03
2022-12-08T10:49:14.783Z,5.12
2022-12-08T10:51:46.659Z,5.26
2022-12-08T10:54:28.922Z,5.92
2022-12-08T10:57:01.024Z,6.17
2022-12-08T10:59:34.915Z,6.18
2022-12-08T11:02:18.048Z,6.11
2022-12-08T11:04:59.510Z,5.97
2022-12-08T11:07:31.457Z,5.81
2022-12-08T11:10:04.015Z,5.77
2022-12-08T11:12:37.078Z,5.76
2022-12-08T11:15:17.132Z,5.61
2022-12-08T11:18:01.760Z,5.46
2022-12-08T11:20:39.582Z,5.40
2022-12-08T11:23:22.623Z,5.35
2022-12-08T11:25:58.002Z,5.25
2022-12-08T11:28:30.282Z,5.12
2022-12-08T11:31:06.861Z,5.07
2022-12-08T11:33:38.874Z,5.11
2022-12-08T11:36:12.399Z,5.17
2022-12-08T11:38:45.868Z,5.22
2022-12-08T11:41:19.032Z,5.28
2022-12-08T11:43:54.661Z,5.34
2022-12-08T11:46:27.617Z,5.33
2022-12-08T11:49:06.231Z,5.36
2022-12-08T11:51:41.381Z,5.40
2022-12-08T11:54:20.517Z,5.38
2022-12-08T11:56:55.946Z,5.23
2022-12-08T11:59:30.479Z,5.09
2022-12-08T12:02:03.589Z,4.96
2022-12-08T12:04:39.552Z,4.82
2022-12-08T12:07:28.455Z,4.71
2022-12-08T12:10:09.337Z,4.58
2022-12-08T12:12:50.177Z,4.51
2022-12-08T12:15:36.418Z,4.49
2022-12-08T12:18:16.790Z,4.50
2022-12-08T12:20:54.049Z,4.51
2022-12-08T12:23:31.170Z,4.51
2022-12-08T12:26:04.281Z,4.49
2022-12-08T12:28:42.570Z,4.46
2022-12-08T12:31:17.715Z,4.45
2022-12-08T12:33:50.462Z,4.51
2022-12-08T12:36:22.588Z,4.57
2022-12-08T12:39:06.707Z,4.60
2022-12-08T12:41:44.796Z,4.59
2022-12-08T12:44:27.347Z,4.54
2022-12-08T12:47:00.473Z,4.48
2022-12-08T12:49:49.344Z,4.42
2022-12-08T12:52:38.134Z,4.37
2022-12-08T12:55:23.190Z,4.38
2022-12-08T12:57:55.716Z,4.36
2022-12-08T13:00:29.222Z,4.34
2022-12-08T13:03:01.607Z,4.35
2022-12-08T13:05:49.953Z,4.35
2022-12-08T13:08:24.519Z,4.36
2022-12-08T13:11:02.530Z,4.41
2022-12-08T13:13:34.990Z,4.44
2022-12-08T13:16:19.240Z,4.43
2022-12-08T13:18:52.920Z,4.38
2022-12-08T13:21:25.630Z,4.32
2022-12-08T13:24:10.990Z,4.30
2022-12-08T13:26:48.267Z,4.30
2022-12-08T13:29:21.394Z,4.30
2022-12-08T13:31:56.762Z,4.30
2022-12-08T13:34:33.050Z,4.29
2022-12-08T13:37:08.574Z,4.25
2022-12-08T13:39:43.899Z,4.23
2022-12-08T13:42:22.935Z,4.20
2022-12-08T13:52:20.120Z,4.08
2022-12-08T13:54:45.795Z,4.01
2022-12-08T13:59:30.198Z,3.93
2022-12-08T14:02:05.246Z,3.92
2022-12-08T14:05:09.153Z,3.90
2022-12-08T14:07:29.271Z,3.86
2022-12-08T14:10:03.099Z,3.83
2022-12-08T14:12:35.379Z,3.81
2022-12-08T14:15:08.401Z,3.82
2022-12-08T14:17:41.181Z,3.81
2022-12-08T14:20:21.683Z,3.78
2022-12-08T14:22:53.973Z,3.75
2022-12-08T14:25:28.480Z,3.72
2022-12-08T14:28:02.322Z,3.71
2022-12-08T14:30:34.837Z,3.70
2022-12-08T14:33:07.129Z,3.70
2022-12-08T14:35:40.237Z,3.69
2022-12-08T14:38:14.738Z,3.68
2022-12-08T14:40:47.148Z,3.67
2022-12-08T14:43:20.824Z,3.64
2022-12-08T14:45:54.119Z,3.64
2022-12-08T14:48:27.290Z,3.65
2022-12-08T14:51:03.911Z,3.66
2022-12-08T14:53:41.180Z,3.65
2022-12-08T14:56:22.539Z,3.63
2022-12-08T14:59:04.672Z,3.60
2022-12-08T15:01:37.239Z,3.57
2022-12-08T15:04:11.084Z,3.56
2022-12-08T15:06:52.673Z,3.58
2022-12-08T15:09:32.045Z,3.58
2022-12-08T15:12:04.605Z,3.57
2022-12-08T15:14:37.616Z,3.57
2022-12-08T15:17:22.827Z,3.55
2022-12-08T15:19:59.508Z,3.54
2022-12-08T15:22:32.040Z,3.55
2022-12-08T15:25:03.841Z,3.58
2022-12-08T15:27:46.870Z,3.61
2022-12-08T15:30:22.083Z,3.65
2022-12-08T15:32:54.591Z,3.66
2022-12-08T15:35:26.554Z,3.68
2022-12-08T15:37:58.418Z,3.68
2022-12-08T15:40:30.505Z,3.68
2022-12-08T15:43:02.494Z,3.68
2022-12-08T15:45:34.559Z,3.67
2022-12-08T15:48:06.882Z,3.65
2022-12-08T15:50:38.805Z,3.64
2022-12-08T15:53:11.690Z,3.64
2022-12-08T15:56:03.469Z,3.65
2022-12-08T15:58:55.217Z,3.66
2022-12-08T16:01:29.249Z,3.64
2022-12-08T16:09:46.478Z,3.55
2022-12-08T16:13:26.898Z,3.56
2022-12-08T16:18:25.570Z,3.62
2022-12-08T16:21:39.980Z,3.63
2022-12-08T16:23:50.233Z,3.64
2022-12-08T16:29:19.505Z,3.65
2022-12-08T16:31:52.301Z,3.65
2022-12-08T16:34:24.800Z,3.65
2022-12-08T16:36:57.151Z,3.68
2022-12-08T16:39:29.427Z,3.71
2022-12-08T16:42:19.022Z,3.73
2022-12-08T16:44:50.914Z,3.78
2022-12-08T16:47:22.753Z,3.82
2022-12-08T16:49:54.697Z,3.89
2022-12-08T16:52:26.531Z,3.93
2022-12-08T16:54:59.445Z,3.94
2022-12-08T16:57:31.558Z,3.97
2022-12-08T17:00:05.076Z,3.98
2022-12-08T17:02:38.515Z,3.98
2022-12-08T17:05:14.003Z,4.00
2022-12-08T17:07:47.119Z,4.03
2022-12-08T17:10:20.079Z,4.07
2022-12-08T17:12:52.257Z,4.11
2022-12-08T17:15:25.376Z,4.11
2022-12-08T17:17:57.636Z,4.11
2022-12-08T17:20:30.621Z,4.09
2022-12-08T17:23:02.793Z,4.08
2022-12-08T17:25:35.523Z,4.06
2022-12-08T17:28:07.953Z,4.05
2022-12-08T17:30:40.899Z,4.05
2022-12-08T17:33:13.199Z,4.04
2022-12-08T17:35:50.420Z,4.01
2022-12-08T17:38:25.527Z,3.95
2022-12-08T17:40:58.768Z,3.91
2022-12-08T17:43:38.084Z,3.92
2022-12-08T17:46:11.447Z,3.92
2022-12-08T17:48:44.227Z,3.94
2022-12-08T17:51:17.570Z,3.96
2022-12-08T17:53:50.783Z,3.97
2022-12-08T17:56:24.633Z,3.98
2022-12-08T17:58:57.914Z,3.99
2022-12-08T18:01:30.625Z,4.01
2022-12-08T18:04:04.995Z,4.06
2022-12-08T18:06:39.522Z,4.10
2022-12-08T18:09:13.041Z,4.13
2022-12-08T18:11:46.630Z,4.14
2022-12-08T18:14:19.293Z,4.14
2022-12-08T18:16:52.467Z,4.13
2022-12-08T18:19:25.709Z,4.12
2022-12-08T18:21:58.841Z,4.13
2022-12-08T18:24:30.935Z,4.14
2022-12-08T18:27:03.933Z,4.15
2022-12-08T18:29:37.667Z,4.17
2022-12-08T18:32:10.998Z,4.17
2022-12-08T18:34:45.924Z,4.15
2022-12-08T18:37:19.043Z,4.14
2022-12-08T18:39:57.627Z,4.13
2022-12-08T18:42:34.595Z,4.11
2022-12-08T18:45:22.674Z,4.08
2022-12-08T18:47:56.956Z,4.04
2022-12-08T18:50:31.457Z,4.01
2022-12-08T18:53:04.126Z,4.00
2022-12-08T18:55:40.200Z,4.01
2022-12-08T18:58:16.413Z,4.00
2022-12-08T19:00:50.193Z,3.99
2022-12-08T19:03:23.218Z,3.93
2022-12-08T19:06:09.632Z,3.83
2022-12-08T19:08:44.588Z,3.73
2022-12-08T19:11:25.295Z,3.64
2022-12-08T19:14:03.579Z,3.55
2022-12-08T19:16:37.260Z,3.47
2022-12-08T19:19:09.894Z,3.38
2022-12-08T19:21:46.669Z,3.29
2022-12-08T19:24:24.846Z,3.22
2022-12-08T19:27:01.815Z,3.17
2022-12-08T19:29:34.946Z,3.13
2022-12-08T19:32:12.800Z,3.13
2022-12-08T19:34:47.392Z,3.10
2022-12-08T19:37:25.113Z,3.06
2022-12-08T19:40:19.755Z,3.01
2022-12-08T19:43:17.832Z,2.97
2022-12-08T19:45:51.071Z,2.93
2022-12-08T19:48:25.695Z,2.92
2022-12-08T19:51:01.788Z,2.90
2022-12-08T19:53:35.832Z,2.86
2022-12-08T19:56:10.243Z,2.81
2022-12-08T19:58:48.642Z,2.76
2022-12-08T20:01:22.037Z,2.71
2022-12-08T20:03:55.202Z,2.69
2022-12-08T20:06:31.304Z,2.66
2022-12-08T20:09:06.583Z,2.64
2022-12-08T20:11:44.915Z,2.62
2022-12-08T20:14:18.601Z,2.58
2022-12-08T20:16:57.986Z,2.56
2022-12-08T20:19:33.409Z,2.55
2022-12-08T20:22:08.444Z,2.55
2022-12-08T20:24:42.830Z,2.54
2022-12-08T20:27:17.675Z,2.51
2022-12-08T20:29:51.556Z,2.48
2022-12-08T20:32:25.997Z,2.44
2022-12-08T20:34:59.484Z,2.42
2022-12-08T20:37:36.296Z,2.41
2022-12-08T20:40:13.390Z,2.39
2022-12-08T20:42:50.664Z,2.37
2022-12-08T20:45:25.858Z,2.34
2022-12-08T20:48:01.320Z,2.32
2022-12-08T20:50:35.268Z,2.30
2022-12-08T20:53:13.215Z,2.30
2022-12-08T20:55:46.557Z,2.28
2022-12-08T20:58:22.917Z,2.28
2022-12-08T21:00:55.434Z,2.25
2022-12-08T21:03:28.469Z,2.23
2022-12-08T21:06:03.210Z,2.20
2022-12-08T21:08:36.915Z,2.18
2022-12-08T21:11:09.807Z,2.14
2022-12-08T21:13:44.343Z,2.12
2022-12-08T21:16:17.288Z,2.11
2022-12-08T21:18:49.482Z,2.08
2022-12-08T21:21:22.013Z,2.07
2022-12-08T21:23:53.943Z,2.06
2022-12-08T21:26:26.504Z,2.07
2022-12-08T21:28:59.369Z,2.09
2022-12-08T21:31:32.557Z,2.10
2022-12-08T21:34:05.292Z,2.12
2022-12-08T21:36:37.317Z,2.14
2022-12-08T21:39:13.411Z,2.11
2022-12-08T21:42:03.514Z,2.08
2022-12-08T21:44:36.301Z,2.06
2022-12-08T21:47:08.563Z,2.07
2022-12-08T21:49:40.827Z,2.08
2022-12-08T21:52:13.312Z,2.08
2022-12-08T21:54:45.529Z,2.07
2022-12-08T21:57:17.666Z,2.05
2022-12-08T21:59:49.419Z,2.01
2022-12-08T22:02:22.775Z,2.00
2022-12-08T22:04:56.075Z,1.95
2022-12-08T22:07:28.296Z,1.91
2022-12-08T22:10:00.008Z,1.87
2022-12-08T22:12:32.054Z,1.82
2022-12-08T22:15:06.059Z,1.77
2022-12-08T22:17:39.877Z,1.74
2022-12-08T22:20:13.369Z,1.72
2022-12-08T22:22:46.195Z,1.72
2022-12-08T22:25:18.931Z,1.74
2022-12-08T22:27:51.282Z,1.76
2022-12-08T22:30:23.324Z,1.75
2022-12-08T22:32:55.958Z,1.73
2022-12-08T22:35:28.106Z,1.71
2022-12-08T22:38:00.029Z,1.68
2022-12-08T22:40:32.344Z,1.69
2022-12-08T22:43:03.989Z,1.70
2022-12-08T22:45:35.847Z,1.70
2022-12-08T22:48:08.421Z,1.69
2022-12-08T22:50:40.709Z,1.69
2022-12-08T22:53:14.198Z,1.68
2022-12-08T22:55:46.953Z,1.67
2022-12-08T22:58:19.160Z,1.65
2022-12-08T23:00:51.476Z,1.64
2022-12-08T23:03:23.744Z,1.61
2022-12-08T23:05:56.239Z,1.58
2022-12-08T23:08:28.716Z,1.55
2022-12-08T23:11:01.094Z,1.54
2022-12-08T23:13:32.892Z,1.54
2022-12-08T23:16:05.387Z,1.56
2022-12-08T23:18:38.378Z,1.57
2022-12-08T23:21:12.614Z,1.60
2022-12-08T23:23:44.485Z,1.63
2022-12-08T23:26:19.945Z,1.67
2022-12-08T23:28:51.993Z,1.71
2022-12-08T23:31:24.254Z,1.72
2022-12-08T23:33:56.557Z,1.72
2022-12-08T23:36:28.757Z,1.71
2022-12-08T23:39:00.360Z,1.67
2022-12-08T23:41:32.297Z,1.63
2022-12-08T23:44:04.130Z,1.60
2022-12-08T23:46:36.231Z,1.54
2022-12-08T23:49:08.142Z,1.48
2022-12-08T23:51:40.416Z,1.44
2022-12-08T23:54:12.556Z,1.40
2022-12-08T23:56:44.551Z,1.37
2022-12-08T23:59:16.669Z,1.34
